createdAt,value
2023-01-10T00:00:35.549Z,53.20
2023-01-10T00:03:04.318Z,57.65
2023-01-10T00:05:31.893Z,44.58
2023-01-10T00:07:59.261Z,41.58
2023-01-10T00:10:26.142Z,44.42
2023-01-10T00:13:11.791Z,38.45
2023-01-10T00:15:39.238Z,43.95
2023-01-10T00:18:06.430Z,40.33
2023-01-10T00:20:33.254Z,32.60
2023-01-10T00:23:00.214Z,41.92
2023-01-10T00:25:27.486Z,43.35
2023-01-10T00:28:04.634Z,36.70
2023-01-10T00:30:34.018Z,48.78
2023-01-10T00:33:01.184Z,39.55
2023-01-10T00:35:28.255Z,40.58
2023-01-10T00:38:01.419Z,62.67
2023-01-10T00:40:28.354Z,61.53
2023-01-10T00:43:13.959Z,44.47
2023-01-10T00:45:40.821Z,47.05
2023-01-10T00:48:07.716Z,43.90
2023-01-10T00:50:34.759Z,34.83
2023-01-10T00:53:01.693Z,35.17
2023-01-10T00:55:28.726Z,33.05
2023-01-10T00:57:55.567Z,41.22
2023-01-10T01:00:22.652Z,44.88
2023-01-10T01:02:51.759Z,35.88
2023-01-10T01:05:19.423Z,34.58
2023-01-10T01:07:51.303Z,41.22
2023-01-10T01:10:28.142Z,33.85
2023-01-10T01:12:57.234Z,37.88
2023-01-10T01:15:25.187Z,45.83
2023-01-10T01:17:52.125Z,68.70
2023-01-10T01:20:21.063Z,59.38
2023-01-10T01:22:48.469Z,53.25
2023-01-10T01:25:15.711Z,47.75
2023-01-10T01:27:42.695Z,44.17
2023-01-10T01:30:11.379Z,57.15
2023-01-10T01:32:38.730Z,55.40
2023-01-10T01:35:07.492Z,57.70
2023-01-10T01:37:34.457Z,59.78
2023-01-10T01:40:01.330Z,61.78
2023-01-10T01:42:35.465Z,60.25
2023-01-10T01:45:08.631Z,47.28
2023-01-10T01:47:57.316Z,51.38
2023-01-10T01:50:42.747Z,61.97
2023-01-10T01:53:14.882Z,44.30
2023-01-10T01:55:43.881Z,58.53
2023-01-10T01:58:18.201Z,54.28
2023-01-10T02:00:45.227Z,56.33
2023-01-10T02:03:14.373Z,53.15
2023-01-10T02:05:44.480Z,39.90
2023-01-10T02:08:12.818Z,36.00
2023-01-10T02:11:01.263Z,42.03
2023-01-10T02:13:28.517Z,34.88
2023-01-10T02:15:55.378Z,45.38
2023-01-10T02:18:23.551Z,38.47
2023-01-10T02:20:50.378Z,39.72
2023-01-10T02:23:36.328Z,32.58
2023-01-10T02:26:22.786Z,46.95
2023-01-10T02:29:08.823Z,43.60
2023-01-10T02:31:57.288Z,31.60
2023-01-10T02:35:11.997Z,36.50
2023-01-10T02:37:59.898Z,36.15
2023-01-10T02:40:38.884Z,36.92
2023-01-10T02:43:19.874Z,45.72
2023-01-10T02:45:53.345Z,50.67
2023-01-10T02:48:21.867Z,62.63
2023-01-10T02:51:07.163Z,76.32
2023-01-10T02:53:44.953Z,41.78
2023-01-10T02:56:36.862Z,46.70
2023-01-10T02:59:21.488Z,52.13
2023-01-10T03:02:05.670Z,51.35
2023-01-10T03:04:46.126Z,46.10
2023-01-10T03:07:28.059Z,48.60
2023-01-10T03:10:23.763Z,50.40
2023-01-10T03:13:05.053Z,41.17
2023-01-10T03:18:10.672Z,44.10
2023-01-10T03:20:39.861Z,44.08
2023-01-10T03:23:07.257Z,70.80
2023-01-10T03:25:38.160Z,100.95
2023-01-10T03:28:09.925Z,87.65
2023-01-10T03:30:36.754Z,78.32
2023-01-10T03:33:04.776Z,85.93
2023-01-10T03:36:27.502Z,94.30
2023-01-10T03:38:57.337Z,90.55
2023-01-10T03:41:42.676Z,82.28
2023-01-10T03:44:44.473Z,98.53
2023-01-10T03:47:20.335Z,74.18
2023-01-10T03:49:54.129Z,85.35
2023-01-10T03:52:22.206Z,68.55
2023-01-10T03:54:49.380Z,74.38
2023-01-10T03:57:21.792Z,63.83
2023-01-10T03:59:55.225Z,71.05
2023-01-10T04:02:22.127Z,67.80
2023-01-10T04:04:49.007Z,78.32
2023-01-10T04:07:15.964Z,102.22
2023-01-10T04:09:42.836Z,114.32
2023-01-10T04:12:09.828Z,106.70
2023-01-10T04:14:37.374Z,99.75
2023-01-10T04:17:59.075Z,88.13
2023-01-10T04:20:34.633Z,82.60
2023-01-10T04:23:01.671Z,70.75
2023-01-10T04:25:28.610Z,71.10
2023-01-10T04:27:55.510Z,72.13
2023-01-10T04:30:22.768Z,88.68
2023-01-10T04:32:49.711Z,90.70
2023-01-10T04:35:16.772Z,68.53
2023-01-10T04:37:43.695Z,71.22
2023-01-10T04:40:11.264Z,67.35
2023-01-10T04:42:38.296Z,65.93
2023-01-10T04:45:05.760Z,67.60
2023-01-10T04:47:32.675Z,50.58
2023-01-10T04:49:59.668Z,52.08
2023-01-10T04:52:28.294Z,53.22
2023-01-10T04:54:55.233Z,61.70
2023-01-10T04:57:22.122Z,54.40
2023-01-10T04:59:48.975Z,48.65
2023-01-10T05:02:17.307Z,65.28
2023-01-10T05:04:44.279Z,66.55
2023-01-10T05:07:11.170Z,84.18
2023-01-10T05:09:38.004Z,74.63
2023-01-10T05:12:05.127Z,75.28
2023-01-10T05:14:32.049Z,62.63
2023-01-10T05:16:59.245Z,55.60
2023-01-10T05:19:26.064Z,65.00
2023-01-10T05:21:53.382Z,55.60
2023-01-10T05:24:20.408Z,65.22
2023-01-10T05:26:47.350Z,60.20
2023-01-10T05:29:17.077Z,53.15
2023-01-10T05:31:44.011Z,39.40
2023-01-10T05:34:13.948Z,43.10
2023-01-10T05:36:41.187Z,47.22
2023-01-10T05:39:08.126Z,36.90
2023-01-10T05:41:35.099Z,43.00
2023-01-10T05:44:02.022Z,53.10
2023-01-10T05:46:29.572Z,36.58
2023-01-10T05:48:56.460Z,64.38
2023-01-10T05:51:23.433Z,55.33
2023-01-10T05:53:50.447Z,46.92
2023-01-10T05:56:17.919Z,63.05
2023-01-10T05:58:47.269Z,39.90
2023-01-10T06:01:16.794Z,38.83
2023-01-10T06:03:44.089Z,32.90
2023-01-10T06:06:11.084Z,38.80
2023-01-10T06:08:38.207Z,31.40
2023-01-10T06:11:06.043Z,27.00
2023-01-10T06:13:33.637Z,28.05
2023-01-10T06:16:00.640Z,25.88
2023-01-10T06:18:27.794Z,60.30
2023-01-10T06:20:54.875Z,147.68
2023-01-10T06:23:22.000Z,79.78
2023-01-10T06:25:49.177Z,74.45
2023-01-10T06:28:16.149Z,70.47
2023-01-10T06:30:43.725Z,56.95
2023-01-10T06:33:12.504Z,52.33
2023-01-10T06:35:39.889Z,44.22
2023-01-10T06:38:06.849Z,46.13
2023-01-10T06:40:34.000Z,44.88
2023-01-10T06:43:00.831Z,73.10
2023-01-10T06:45:27.976Z,73.50
2023-01-10T06:47:54.983Z,77.43
2023-01-10T06:50:22.524Z,88.00
2023-01-10T06:53:00.344Z,63.83
2023-01-10T06:55:28.598Z,62.10
2023-01-10T06:58:00.247Z,64.78
2023-01-10T07:00:29.244Z,59.70
2023-01-10T07:03:00.946Z,53.75
2023-01-10T07:05:29.203Z,55.88
2023-01-10T07:07:58.041Z,52.60
2023-01-10T07:10:25.083Z,86.70
2023-01-10T07:12:52.075Z,72.68
2023-01-10T07:15:18.917Z,96.30
2023-01-10T07:17:45.866Z,66.18
2023-01-10T07:20:13.337Z,57.60
2023-01-10T07:22:40.475Z,64.55
2023-01-10T07:25:07.809Z,80.90
2023-01-10T07:27:34.902Z,106.35
2023-01-10T07:30:02.012Z,113.70
2023-01-10T07:32:28.977Z,124.60
2023-01-10T07:34:56.220Z,134.43
2023-01-10T07:37:23.205Z,107.95
2023-01-10T07:39:50.518Z,86.65
2023-01-10T07:42:17.368Z,69.38
2023-01-10T07:44:44.299Z,58.17
2023-01-10T07:47:11.409Z,39.33
2023-01-10T07:49:38.394Z,55.20
2023-01-10T07:52:07.951Z,43.50
2023-01-10T07:54:36.173Z,36.15
2023-01-10T07:57:03.276Z,43.40
2023-01-10T07:59:30.381Z,32.13
2023-01-10T08:01:57.326Z,28.52
2023-01-10T08:04:24.349Z,25.40
2023-01-10T08:06:51.828Z,21.60
2023-01-10T08:09:18.787Z,28.63
2023-01-10T08:11:45.698Z,29.48
2023-01-10T08:14:12.616Z,17.70
2023-01-10T08:16:39.494Z,27.38
2023-01-10T08:19:06.581Z,54.65
2023-01-10T08:21:33.704Z,25.42
2023-01-10T08:24:00.652Z,28.85
2023-01-10T08:26:27.719Z,28.23
2023-01-10T08:28:54.652Z,18.65
2023-01-10T08:31:21.624Z,17.20
2023-01-10T08:33:48.719Z,30.85
2023-01-10T08:36:20.690Z,29.55
2023-01-10T08:38:48.374Z,40.75
2023-01-10T08:41:15.327Z,14.93
2023-01-10T08:43:42.718Z,15.57
2023-01-10T08:46:09.776Z,17.23
2023-01-10T08:48:36.941Z,20.15
2023-01-10T08:51:10.244Z,17.65
2023-01-10T08:53:39.499Z,15.20
2023-01-10T08:56:06.840Z,12.60
2023-01-10T08:58:34.087Z,11.60
2023-01-10T09:01:04.943Z,14.18
2023-01-10T09:03:31.935Z,21.13
2023-01-10T09:06:00.164Z,18.25
2023-01-10T09:08:27.110Z,13.18
2023-01-10T09:10:54.592Z,20.10
2023-01-10T09:13:21.454Z,22.98
2023-01-10T09:15:49.026Z,17.35
2023-01-10T09:18:15.982Z,22.77
2023-01-10T09:20:43.546Z,18.15
2023-01-10T09:23:20.263Z,18.20
2023-01-10T09:25:48.478Z,20.17
2023-01-10T09:28:16.274Z,40.88
2023-01-10T09:30:44.517Z,26.45
2023-01-10T09:33:13.581Z,36.03
2023-01-10T09:35:41.873Z,31.60
2023-01-10T09:38:12.708Z,23.15
2023-01-10T09:41:07.490Z,38.65
2023-01-10T09:44:01.120Z,20.58
2023-01-10T09:46:43.431Z,34.38
2023-01-10T09:49:29.088Z,29.38
2023-01-10T09:51:59.229Z,43.63
2023-01-10T09:54:33.782Z,26.70
2023-01-10T09:57:02.782Z,26.92
2023-01-10T09:59:41.695Z,21.58
2023-01-10T10:02:40.656Z,24.38
2023-01-10T10:05:18.873Z,17.77
2023-01-10T10:07:53.840Z,18.75
2023-01-10T10:10:39.366Z,10.70
2023-01-10T10:13:23.262Z,15.77
2023-01-10T10:16:09.274Z,10.02
2023-01-10T10:18:54.647Z,13.50
2023-01-10T10:21:39.808Z,12.07
2023-01-10T10:24:41.640Z,12.02
2023-01-10T10:27:17.473Z,8.90
2023-01-10T10:29:50.383Z,11.52
2023-01-10T10:32:29.591Z,15.88
2023-01-10T10:35:07.341Z,16.67
2023-01-10T10:37:41.276Z,12.43
2023-01-10T10:40:31.990Z,15.13
2023-01-10T10:43:11.687Z,19.63
2023-01-10T10:45:44.473Z,25.48
2023-01-10T10:48:34.480Z,21.45
2023-01-10T10:51:25.801Z,18.58
2023-01-10T10:53:54.754Z,17.83
2023-01-10T10:56:24.800Z,28.45
2023-01-10T10:58:55.615Z,40.25
2023-01-10T11:01:26.382Z,34.05
2023-01-10T11:04:03.731Z,19.42
2023-01-10T11:06:34.302Z,17.38
2023-01-10T11:09:04.709Z,31.55
2023-01-10T11:11:39.814Z,13.18
2023-01-10T11:14:08.803Z,9.57
2023-01-10T11:16:42.092Z,14.60
2023-01-10T11:19:11.816Z,16.00
2023-01-10T11:21:41.308Z,20.35
2023-01-10T11:24:20.500Z,20.13
2023-01-10T11:26:48.338Z,14.38
2023-01-10T11:29:17.434Z,15.30
2023-01-10T11:31:47.005Z,14.70
2023-01-10T11:34:33.361Z,13.10
2023-01-10T11:37:01.533Z,14.10
2023-01-10T11:39:30.159Z,7.10
2023-01-10T11:41:59.689Z,12.55
2023-01-10T11:44:30.024Z,11.07
2023-01-10T11:47:01.815Z,10.65
2023-01-10T11:49:37.764Z,8.80
2023-01-10T11:52:26.654Z,7.60
2023-01-10T11:54:58.378Z,11.23
2023-01-10T11:57:28.673Z,12.50
2023-01-10T12:00:07.513Z,7.97
2023-01-10T12:02:42.814Z,8.02
2023-01-10T12:05:20.495Z,13.98
2023-01-10T12:07:54.309Z,13.75
2023-01-10T12:10:23.271Z,15.63
2023-01-10T12:12:58.367Z,17.13
2023-01-10T12:15:26.999Z,15.23
2023-01-10T12:17:57.114Z,11.13
2023-01-10T12:20:28.735Z,12.23
2023-01-10T12:23:08.282Z,15.20
2023-01-10T12:25:39.037Z,13.80
2023-01-10T12:28:17.827Z,14.73
2023-01-10T12:30:50.481Z,20.58
2023-01-10T12:33:23.025Z,31.33
2023-01-10T12:36:13.118Z,17.83
2023-01-10T12:39:07.775Z,31.95
2023-01-10T12:42:00.303Z,12.10
2023-01-10T12:44:42.132Z,16.83
2023-01-10T12:47:30.813Z,20.83
2023-01-10T12:50:05.945Z,11.23
2023-01-10T12:53:07.054Z,13.10
2023-01-10T12:55:40.996Z,12.88
2023-01-10T12:58:23.334Z,20.08
2023-01-10T13:00:54.575Z,16.73
2023-01-10T13:03:25.844Z,10.13
2023-01-10T13:05:54.376Z,12.65
2023-01-10T13:08:25.872Z,15.93
2023-01-10T13:13:52.322Z,16.75
2023-01-10T13:16:52.862Z,17.02
2023-01-10T13:19:28.789Z,11.30
2023-01-10T13:22:17.712Z,12.27
2023-01-10T13:24:56.370Z,14.75
2023-01-10T13:27:33.396Z,12.00
2023-01-10T13:30:01.534Z,15.15
2023-01-10T13:32:32.911Z,15.75
2023-01-10T13:35:19.984Z,14.15
2023-01-10T13:37:54.333Z,19.45
2023-01-10T13:40:28.576Z,15.20
2023-01-10T13:43:36.885Z,18.85
2023-01-10T13:46:19.468Z,13.52
2023-01-10T13:48:49.450Z,13.52
2023-01-10T13:51:21.781Z,14.38
2023-01-10T13:53:57.735Z,11.80
2023-01-10T13:56:36.497Z,18.90
2023-01-10T13:59:28.775Z,15.88
2023-01-10T14:02:18.824Z,15.65
2023-01-10T14:04:55.826Z,16.95
2023-01-10T14:07:30.563Z,13.50
2023-01-10T14:10:06.899Z,13.80
2023-01-10T14:12:57.225Z,17.98
2023-01-10T14:15:37.605Z,19.27
2023-01-10T14:18:32.359Z,14.33
2023-01-10T14:21:02.804Z,12.75
2023-01-10T14:23:49.772Z,13.80
2023-01-10T14:26:27.176Z,13.95
2023-01-10T14:28:54.260Z,11.57
2023-01-10T14:31:26.462Z,11.57
2023-01-10T14:33:54.166Z,10.13
2023-01-10T14:36:37.353Z,11.80
2023-01-10T14:39:07.784Z,12.68
2023-01-10T14:41:42.746Z,16.85
2023-01-10T14:44:45.895Z,18.23
2023-01-10T14:47:29.936Z,15.05
2023-01-10T14:50:06.815Z,16.98
2023-01-10T14:52:34.151Z,24.70
2023-01-10T14:55:16.982Z,25.25
2023-01-10T14:58:01.932Z,23.50
2023-01-10T15:00:36.562Z,20.65
2023-01-10T15:03:04.509Z,14.63
2023-01-10T15:05:37.549Z,21.55
2023-01-10T15:08:24.092Z,42.35
2023-01-10T15:10:54.874Z,15.60
2023-01-10T15:13:28.269Z,23.98
2023-01-10T15:15:56.582Z,15.82
2023-01-10T15:18:45.921Z,23.33
2023-01-10T15:21:15.404Z,14.05
2023-01-10T15:23:44.546Z,13.18
2023-01-10T15:26:27.687Z,7.90
2023-01-10T15:29:20.541Z,6.65
2023-01-10T15:31:47.574Z,6.80
2023-01-10T15:34:29.895Z,5.75
2023-01-10T15:39:29.428Z,5.80
2023-01-10T15:42:00.678Z,6.03
2023-01-10T15:44:39.722Z,6.32
2023-01-10T15:47:37.067Z,7.97
2023-01-10T15:50:21.291Z,9.63
2023-01-10T15:52:57.639Z,7.90
2023-01-10T15:55:46.699Z,6.90
2023-01-10T15:58:19.124Z,9.80
2023-01-10T16:00:47.867Z,8.77
2023-01-10T16:03:36.986Z,11.02
2023-01-10T16:06:09.781Z,12.02
2023-01-10T16:08:38.784Z,6.80
2023-01-10T16:11:08.927Z,9.07
2023-01-10T16:13:37.521Z,15.90
2023-01-10T16:16:15.316Z,12.80
2023-01-10T16:18:42.518Z,15.63
2023-01-10T16:21:11.698Z,11.48
2023-01-10T16:23:46.045Z,13.85
2023-01-10T16:26:14.816Z,11.52
2023-01-10T16:28:41.777Z,12.32
2023-01-10T16:31:14.743Z,14.73
2023-01-10T16:33:42.216Z,25.40
2023-01-10T16:36:18.656Z,16.25
2023-01-10T16:38:45.626Z,14.23
2023-01-10T16:41:33.005Z,20.08
2023-01-10T16:44:00.866Z,20.58
2023-01-10T16:46:27.952Z,67.90
2023-01-10T16:48:55.082Z,55.70
2023-01-10T16:51:32.420Z,47.72
2023-01-10T16:53:59.446Z,39.85
2023-01-10T16:56:28.633Z,21.27
2023-01-10T16:58:55.958Z,17.23
2023-01-10T17:01:28.821Z,11.57
2023-01-10T17:03:56.560Z,11.85
2023-01-10T17:06:23.611Z,12.52
2023-01-10T17:08:50.650Z,10.93
2023-01-10T17:11:22.899Z,9.80
2023-01-10T17:13:50.004Z,8.40
2023-01-10T17:16:19.403Z,7.85
2023-01-10T17:18:47.579Z,13.35
2023-01-10T17:21:22.161Z,9.35
2023-01-10T17:23:49.982Z,27.42
2023-01-10T17:26:18.620Z,9.77
2023-01-10T17:28:46.699Z,7.75
2023-01-10T17:31:13.681Z,6.93
2023-01-10T17:33:40.613Z,9.30
2023-01-10T17:36:08.054Z,6.97
2023-01-10T17:38:34.864Z,8.93
2023-01-10T17:41:02.263Z,15.40
2023-01-10T17:43:30.751Z,8.05
2023-01-10T17:45:59.078Z,12.75
2023-01-10T17:48:26.634Z,10.23
2023-01-10T17:50:59.406Z,10.25
2023-01-10T17:53:26.667Z,6.72
2023-01-10T17:55:53.994Z,9.68
2023-01-10T17:58:21.486Z,9.55
2023-01-10T18:00:49.030Z,12.70
2023-01-10T18:03:16.682Z,8.43
2023-01-10T18:05:54.891Z,12.82
2023-01-10T18:08:22.708Z,7.78
2023-01-10T18:10:50.132Z,10.65
2023-01-10T18:13:18.781Z,10.70
2023-01-10T18:15:49.405Z,10.77
2023-01-10T18:18:18.374Z,7.15
2023-01-10T18:20:45.670Z,17.48
2023-01-10T18:23:23.076Z,8.55
2023-01-10T18:26:00.158Z,13.07
2023-01-10T18:28:40.664Z,7.88
2023-01-10T18:33:39.230Z,16.60
2023-01-10T18:36:07.903Z,31.17
2023-01-10T18:38:36.976Z,15.95
2023-01-10T18:41:04.583Z,18.33
2023-01-10T18:43:33.982Z,18.67
2023-01-10T18:46:14.215Z,14.63
2023-01-10T18:48:41.975Z,12.25
2023-01-10T18:51:12.970Z,10.18
2023-01-10T18:53:42.289Z,9.88
2023-01-10T18:56:10.362Z,14.55
2023-01-10T18:58:41.935Z,14.13
2023-01-10T19:01:16.860Z,12.35
2023-01-10T19:03:44.732Z,18.60
2023-01-10T19:06:17.271Z,14.75
2023-01-10T19:08:46.006Z,13.27
2023-01-10T19:11:16.773Z,13.88
2023-01-10T19:13:45.112Z,13.98
2023-01-10T19:16:13.915Z,13.27
2023-01-10T19:18:41.540Z,11.05
2023-01-10T19:21:16.051Z,7.60
2023-01-10T19:23:45.009Z,11.85
2023-01-10T19:26:13.143Z,8.18
2023-01-10T19:28:40.989Z,6.20
2023-01-10T19:31:08.467Z,5.75
2023-01-10T19:33:37.939Z,4.32
2023-01-10T19:36:06.989Z,5.10
2023-01-10T19:38:34.705Z,3.90
2023-01-10T19:41:02.063Z,3.85
2023-01-10T19:43:29.541Z,4.75
2023-01-10T19:45:56.902Z,8.20
2023-01-10T19:48:24.696Z,9.73
2023-01-10T19:50:52.388Z,7.45
2023-01-10T19:53:24.066Z,11.35
2023-01-10T19:58:27.147Z,3.00
2023-01-10T20:00:54.284Z,4.35
2023-01-10T20:03:21.586Z,2.78
2023-01-10T20:05:48.589Z,3.28
2023-01-10T20:08:20.701Z,3.53
2023-01-10T20:10:48.106Z,4.40
2023-01-10T20:13:15.655Z,4.53
2023-01-10T20:15:43.572Z,5.43
2023-01-10T20:18:10.650Z,4.68
2023-01-10T20:20:38.301Z,4.40
2023-01-10T20:23:07.156Z,4.35
2023-01-10T20:25:39.087Z,4.05
2023-01-10T20:28:16.352Z,4.47
2023-01-10T20:30:45.159Z,4.85
2023-01-10T20:33:16.106Z,5.55
2023-01-10T20:35:45.618Z,6.43
2023-01-10T20:38:13.063Z,6.50
2023-01-10T20:40:43.602Z,11.63
2023-01-10T20:43:12.131Z,12.00
2023-01-10T20:45:42.833Z,9.43
2023-01-10T20:48:10.440Z,8.07
2023-01-10T20:50:38.347Z,11.20
2023-01-10T20:53:05.362Z,10.77
2023-01-10T20:55:35.287Z,12.75
2023-01-10T20:58:03.061Z,11.95
2023-01-10T21:00:30.913Z,11.57
2023-01-10T21:02:58.059Z,13.60
2023-01-10T21:05:25.120Z,9.70
2023-01-10T21:07:52.052Z,10.50
2023-01-10T21:10:19.056Z,6.97
2023-01-10T21:12:46.101Z,7.68
2023-01-10T21:15:13.147Z,13.32
2023-01-10T21:17:42.038Z,22.00
2023-01-10T21:20:10.541Z,22.65
2023-01-10T21:22:37.478Z,11.50
2023-01-10T21:25:04.745Z,10.45
2023-01-10T21:27:31.962Z,9.15
2023-01-10T21:29:59.273Z,6.03
2023-01-10T21:32:26.513Z,11.55
2023-01-10T21:34:53.377Z,11.90
2023-01-10T21:37:20.343Z,7.95
2023-01-10T21:39:47.249Z,6.93
2023-01-10T21:42:32.477Z,8.88
2023-01-10T21:44:59.341Z,8.90
2023-01-10T21:47:26.313Z,8.27
2023-01-10T21:49:53.265Z,6.15
2023-01-10T21:52:20.473Z,7.32
2023-01-10T21:54:47.292Z,5.30
2023-01-10T21:57:14.228Z,5.97
2023-01-10T21:59:41.725Z,4.28
2023-01-10T22:02:15.932Z,4.78
2023-01-10T22:04:53.412Z,3.47
2023-01-10T22:07:28.344Z,4.13
2023-01-10T22:09:55.402Z,7.60
2023-01-10T22:12:24.302Z,6.47
2023-01-10T22:14:51.115Z,4.45
2023-01-10T22:17:18.154Z,7.15
2023-01-10T22:19:45.130Z,4.88
2023-01-10T22:22:12.261Z,4.93
2023-01-10T22:24:41.957Z,4.32
2023-01-10T22:27:08.984Z,3.70
2023-01-10T22:29:36.004Z,3.22
2023-01-10T22:32:03.024Z,3.03
2023-01-10T22:34:29.918Z,3.45
2023-01-10T22:36:56.933Z,3.80
2023-01-10T22:39:23.973Z,3.20
2023-01-10T22:41:53.500Z,3.72
2023-01-10T22:44:22.972Z,3.78
2023-01-10T22:46:51.720Z,2.80
2023-01-10T22:49:18.988Z,3.30
2023-01-10T22:51:46.173Z,2.42
2023-01-10T22:54:15.886Z,3.58
2023-01-10T22:56:43.807Z,2.58
2023-01-10T22:59:11.430Z,2.95
2023-01-10T23:01:39.109Z,2.15
2023-01-10T23:04:06.296Z,1.73
2023-01-10T23:06:33.292Z,3.47
2023-01-10T23:09:00.410Z,2.47
2023-01-10T23:11:27.341Z,2.92
2023-01-10T23:13:54.206Z,3.50
2023-01-10T23:16:28.598Z,2.60
2023-01-10T23:18:57.556Z,2.35
2023-01-10T23:21:25.995Z,2.90
2023-01-10T23:23:53.069Z,2.60
2023-01-10T23:26:19.981Z,2.60
2023-01-10T23:28:49.443Z,2.67
2023-01-10T23:31:19.873Z,2.20
2023-01-10T23:33:47.825Z,3.17
2023-01-10T23:36:15.199Z,3.47
2023-01-10T23:38:42.575Z,1.70
2023-01-10T23:41:09.763Z,1.70
2023-01-10T23:43:37.863Z,1.83
2023-01-10T23:46:06.096Z,2.17
2023-01-10T23:48:33.349Z,3.17
2023-01-10T23:51:00.282Z,4.13
2023-01-10T23:53:27.348Z,2.70
2023-01-10T23:55:54.479Z,3.35
2023-01-10T23:58:21.444Z,3.83
